Mauston, WI (53948)

10:26 AM CDT on September 04, 2015 (GMT -0500)
Juneau County Weather | | Change Station
CLOSE
Current Station
Personal Weather Station
Location: Mauston, WI
Elevation: 873 ft
Nearby Weather Stations

Elev 873 ft 43.80 °N, 90.07 °W | Updated 2 seconds ago

Overcast
Overcast
73.3 °F
Feels Like 73 °F
N
2.1
Wind Variable Wind from NE
Gusts 2.4 mph

Today
High -- | Low -- °F
--% Chance of Precip.
Yesterday
High -- | Low -- °F
Precip. -- in
6:26 AM 7:31 PM
Waning Gibbous, 58% visible
Pressure 30.04 in
Visibility 7.0 miles
Clouds Few 2500 ft
Mostly Cloudy 3500 ft
Mostly Cloudy 10000 ft
Heat Index 73 °F
Dew Point 67 °F
Humidity 81%
Rainfall 0.00 in
Snow Depth Not available.
UV 3.6 out of 12
Pollen 9.60 out of 12
Air Quality Not available.
Flu Activity Not available.
METAR KVOK 041458Z 11006KT 7SM FEW025 BKN035 BKN100 22/22 A3004 RMK AO2A SLP172 52010
Pressure 30.04 in
Visibility 7.0 miles
Clouds Few 2500 ft
Mostly Cloudy 3500 ft
Mostly Cloudy 10000 ft
Heat Index 73 °F
Dew Point 67 °F
Humidity 81%
Rainfall 0.00 in
Snow Depth Not available.
UV 3.6 out of 12
Pollen 9.60 out of 12
Air Quality Not available.
Flu Activity Not available.
METAR KVOK 041458Z 11006KT 7SM FEW025 BKN035 BKN100 22/22 A3004 RMK AO2A SLP172 52010

10-Day Weather Forecast

×

Almanac

Astronomy

Sep. 04, 2015 Rise Set
Actual Time
Civil Twilight
Nautical Twilight
Astronomical Twilight
Moon
Length of Visible Light
Length of Day
Tomorrow will be .
, % of the Moon is Illuminated

Today's Extremes

State Highs State Lows

Community

WunderPhotos

Upload Photos

1,852,194 photos uploaded!

WunderBlogs® & News

Nearby

Air Quality

  Air Quality AQ Index Pollutant
Not available.

Snow Depth

Station Depth Elevation

Earthquake Activity

City Distance Mag. Time & Date
Minimum magnitude displayed is 2.5.

Coastal Water Temperatures

Place Temperature

Stations

Nearby Weather Stations

Station Location Temp. Windchill Dew Point Humidity Wind Precip. Elev Updated Type